createdAt,value
2023-04-02T00:00:36.201Z,0.00
2023-04-02T00:01:36.155Z,0.00
2023-04-02T00:02:36.210Z,0.00
2023-04-02T00:03:36.236Z,0.00
2023-04-02T00:04:36.095Z,0.00
2023-04-02T00:05:36.405Z,0.00
2023-04-02T00:06:36.223Z,0.00
2023-04-02T00:07:36.076Z,0.00
2023-04-02T00:08:36.044Z,0.00
2023-04-02T00:09:36.077Z,0.00
2023-04-02T00:10:36.043Z,0.00
2023-04-02T00:11:36.029Z,0.00
2023-04-02T00:12:36.038Z,0.00
2023-04-02T00:13:36.105Z,0.00
2023-04-02T00:14:35.954Z,0.00
2023-04-02T00:15:36.343Z,0.00
2023-04-02T00:16:35.971Z,0.00
2023-04-02T00:17:35.970Z,0.00
2023-04-02T00:18:35.968Z,0.00
2023-04-02T00:19:35.929Z,0.00
2023-04-02T00:20:35.900Z,0.00
2023-04-02T00:21:36.359Z,0.00
2023-04-02T00:22:35.863Z,0.00
2023-04-02T00:23:35.897Z,0.00
2023-04-02T00:24:35.968Z,0.00
2023-04-02T00:25:36.098Z,0.00
2023-04-02T00:26:35.809Z,0.00
2023-04-02T00:27:35.835Z,0.00
2023-04-02T00:28:35.775Z,0.00
2023-04-02T00:29:35.824Z,0.00
2023-04-02T00:30:35.810Z,0.00
2023-04-02T00:31:35.805Z,0.00
2023-04-02T00:32:35.809Z,0.00
2023-04-02T00:33:35.755Z,0.00
2023-04-02T00:34:35.696Z,0.00
2023-04-02T00:35:35.990Z,0.00
2023-04-02T00:36:35.801Z,0.00
2023-04-02T00:37:35.700Z,0.00
2023-04-02T00:38:35.684Z,0.00
2023-04-02T00:39:35.670Z,0.00
2023-04-02T00:40:35.644Z,0.00
2023-04-02T00:41:35.664Z,0.00
2023-04-02T00:42:35.709Z,0.00
2023-04-02T00:43:35.636Z,0.00
2023-04-02T00:44:35.556Z,0.00
2023-04-02T00:45:35.988Z,0.00
2023-04-02T00:46:35.569Z,0.00
2023-04-02T00:47:35.592Z,0.00
2023-04-02T00:48:35.580Z,0.00
2023-04-02T00:49:35.553Z,0.00
2023-04-02T00:50:35.492Z,0.00
2023-04-02T00:51:35.551Z,0.00
2023-04-02T00:52:35.491Z,0.00
2023-04-02T00:53:35.521Z,0.00
2023-04-02T00:54:35.520Z,0.00
2023-04-02T00:55:35.723Z,0.00
2023-04-02T00:56:35.420Z,0.00
2023-04-02T00:57:35.463Z,0.00
2023-04-02T00:58:35.470Z,0.00
2023-04-02T00:59:35.430Z,0.00
2023-04-02T01:00:35.439Z,0.00
2023-04-02T01:01:35.393Z,0.00
2023-04-02T01:02:35.445Z,0.00
2023-04-02T01:03:35.894Z,0.00
2023-04-02T01:04:35.318Z,0.00
2023-04-02T01:05:35.743Z,0.00
2023-04-02T01:06:35.348Z,0.00
2023-04-02T01:07:35.290Z,0.00
2023-04-02T01:08:35.269Z,0.00
2023-04-02T01:09:35.272Z,0.00
2023-04-02T01:10:35.204Z,0.00
2023-04-02T01:11:35.269Z,0.00
2023-04-02T01:12:35.321Z,0.00
2023-04-02T01:13:35.219Z,0.00
2023-04-02T01:14:35.176Z,0.00
2023-04-02T01:15:35.327Z,0.00
2023-04-02T01:16:35.132Z,0.00
2023-04-02T01:17:35.228Z,0.00
2023-04-02T01:18:35.159Z,0.00
2023-04-02T01:19:36.092Z,0.00
2023-04-02T01:20:35.102Z,0.00
2023-04-02T01:21:35.087Z,0.00
2023-04-02T01:22:35.078Z,0.00
2023-04-02T01:23:35.090Z,0.00
2023-04-02T01:24:35.079Z,0.00
2023-04-02T01:25:35.222Z,0.00
2023-04-02T01:26:35.019Z,0.00
2023-04-02T01:27:35.006Z,0.00
2023-04-02T01:28:34.970Z,0.00
2023-04-02T01:29:35.005Z,0.00
2023-04-02T01:30:35.082Z,0.00
2023-04-02T01:31:34.994Z,0.00
2023-04-02T01:32:34.961Z,0.00
2023-04-02T01:33:34.941Z,0.00
2023-04-02T01:34:34.918Z,0.00
2023-04-02T01:35:35.064Z,0.00
2023-04-02T01:36:34.975Z,0.00
2023-04-02T01:37:34.930Z,0.00
2023-04-02T01:38:34.874Z,0.00
2023-04-02T01:39:34.854Z,0.00
2023-04-02T01:40:34.861Z,0.00
2023-04-02T01:41:34.822Z,0.00
2023-04-02T01:42:34.815Z,0.00
2023-04-02T01:43:34.841Z,0.00
2023-04-02T01:44:34.757Z,0.00
2023-04-02T01:45:35.159Z,0.00
2023-04-02T01:46:34.791Z,0.00
2023-04-02T01:47:34.752Z,0.00
2023-04-02T01:48:34.770Z,0.00
2023-04-02T01:49:34.706Z,0.00
2023-04-02T01:50:34.694Z,0.00
2023-04-02T01:51:34.719Z,0.00
2023-04-02T01:52:34.645Z,0.00
2023-04-02T01:53:34.709Z,0.00
2023-04-02T01:54:34.685Z,0.00
2023-04-02T01:55:34.864Z,0.00
2023-04-02T01:56:34.639Z,0.00
2023-04-02T01:57:34.626Z,0.00
2023-04-02T01:58:34.566Z,0.00
2023-04-02T01:59:34.623Z,0.00
2023-04-02T02:00:34.690Z,0.00
2023-04-02T02:01:34.560Z,0.00
2023-04-02T02:02:34.627Z,0.00
2023-04-02T02:03:34.582Z,0.00
2023-04-02T02:04:34.489Z,0.00
2023-04-02T02:05:34.699Z,0.00
2023-04-02T02:06:34.632Z,0.00
2023-04-02T02:07:34.476Z,0.00
2023-04-02T02:08:34.584Z,0.00
2023-04-02T02:09:34.458Z,0.00
2023-04-02T02:10:34.429Z,0.00
2023-04-02T02:11:34.470Z,0.00
2023-04-02T02:12:34.423Z,0.00
2023-04-02T02:13:34.424Z,0.00
2023-04-02T02:14:34.387Z,0.00
2023-04-02T02:15:34.661Z,0.00
2023-04-02T02:16:34.367Z,0.00
2023-04-02T02:17:34.458Z,0.00
2023-04-02T02:18:34.448Z,0.00
2023-04-02T02:19:34.347Z,0.00
2023-04-02T02:20:34.306Z,0.00
2023-04-02T02:21:34.287Z,0.00
2023-04-02T02:22:34.278Z,0.00
2023-04-02T02:23:34.293Z,0.00
2023-04-02T02:24:34.264Z,0.00
2023-04-02T02:25:34.531Z,0.00
2023-04-02T02:26:34.221Z,0.00
2023-04-02T02:27:34.210Z,0.00
2023-04-02T02:28:34.199Z,0.00
2023-04-02T02:29:34.177Z,0.00
2023-04-02T02:30:34.165Z,0.00
2023-04-02T02:31:34.233Z,0.00
2023-04-02T02:32:34.168Z,0.00
2023-04-02T02:33:34.160Z,0.00
2023-04-02T02:34:34.091Z,0.00
2023-04-02T02:35:34.526Z,0.00
2023-04-02T02:36:34.118Z,0.00
2023-04-02T02:37:34.105Z,0.00
2023-04-02T02:38:34.059Z,0.00
2023-04-02T02:39:34.080Z,0.00
2023-04-02T02:40:34.033Z,0.00
2023-04-02T02:41:34.026Z,0.00
2023-04-02T02:42:34.121Z,0.00
2023-04-02T02:43:34.035Z,0.00
2023-04-02T02:44:33.954Z,0.00
2023-04-02T02:45:34.343Z,0.00
2023-04-02T02:46:33.956Z,0.00
2023-04-02T02:47:33.971Z,0.00
2023-04-02T02:48:33.986Z,0.00
2023-04-02T02:49:33.888Z,0.00
2023-04-02T02:50:33.910Z,0.00
2023-04-02T02:51:33.882Z,0.00
2023-04-02T02:52:33.862Z,0.00
2023-04-02T02:53:33.879Z,0.00
2023-04-02T02:54:34.006Z,0.00
2023-04-02T02:55:33.984Z,0.00
2023-04-02T02:56:33.867Z,0.00
2023-04-02T02:57:33.816Z,0.00
2023-04-02T02:58:33.785Z,0.00
2023-04-02T02:59:33.821Z,0.00
2023-04-02T03:00:33.878Z,0.00
2023-04-02T03:01:33.776Z,0.00
2023-04-02T03:02:33.882Z,0.00
2023-04-02T03:03:33.799Z,0.00
2023-04-02T03:04:33.712Z,0.00
2023-04-02T03:05:33.944Z,0.00
2023-04-02T03:06:33.752Z,0.00
2023-04-02T03:07:33.660Z,0.00
2023-04-02T03:08:33.698Z,0.00
2023-04-02T03:09:33.618Z,0.00
2023-04-02T03:10:33.630Z,0.00
2023-04-02T03:11:33.620Z,4.00
2023-04-02T03:12:33.739Z,0.00
2023-04-02T03:13:33.598Z,0.00
2023-04-02T03:14:33.603Z,0.00
2023-04-02T03:15:34.031Z,0.00
2023-04-02T03:16:33.581Z,0.00
2023-04-02T03:17:33.520Z,0.00
2023-04-02T03:18:33.631Z,0.00
2023-04-02T03:19:33.536Z,0.00
2023-04-02T03:20:33.530Z,0.00
2023-04-02T03:21:33.453Z,0.00
2023-04-02T03:22:33.495Z,4.00
2023-04-02T03:23:33.458Z,0.00
2023-04-02T03:24:33.563Z,0.00
2023-04-02T03:25:33.621Z,0.00
2023-04-02T03:26:33.463Z,0.00
2023-04-02T03:27:33.385Z,0.00
2023-04-02T03:28:33.432Z,0.00
2023-04-02T03:29:33.354Z,0.00
2023-04-02T03:30:33.406Z,0.00
2023-04-02T03:31:33.400Z,0.00
2023-04-02T03:32:33.365Z,0.00
2023-04-02T03:33:33.324Z,0.00
2023-04-02T03:34:33.346Z,0.00
2023-04-02T03:35:33.590Z,0.00
2023-04-02T03:36:33.329Z,0.00
2023-04-02T03:37:33.277Z,0.00
2023-04-02T03:38:33.301Z,0.00
2023-04-02T03:39:33.227Z,0.00
2023-04-02T03:40:33.266Z,0.00
2023-04-02T03:41:33.236Z,0.00
2023-04-02T03:42:33.265Z,0.00
2023-04-02T03:43:33.194Z,0.00
2023-04-02T03:44:33.208Z,0.00
2023-04-02T03:45:33.339Z,0.00
2023-04-02T03:46:33.243Z,0.00
2023-04-02T03:47:33.179Z,0.00
2023-04-02T03:48:33.184Z,0.00
2023-04-02T03:49:33.100Z,0.00
2023-04-02T03:50:33.120Z,0.00
2023-04-02T03:51:33.092Z,0.00
2023-04-02T03:52:33.082Z,0.00
2023-04-02T03:53:33.063Z,0.00
2023-04-02T03:54:33.150Z,0.00
2023-04-02T03:55:33.289Z,0.00
2023-04-02T03:56:33.058Z,0.00
2023-04-02T03:57:33.036Z,0.00
2023-04-02T03:58:33.956Z,0.00
2023-04-02T03:59:32.988Z,0.00
2023-04-02T04:00:33.013Z,0.00
2023-04-02T04:01:33.062Z,0.00
2023-04-02T04:02:32.989Z,0.00
2023-04-02T04:03:32.947Z,0.00
2023-04-02T04:04:33.058Z,0.00
2023-04-02T04:05:33.055Z,0.00
2023-04-02T04:06:32.941Z,0.00
2023-04-02T04:07:32.914Z,0.00
2023-04-02T04:08:32.904Z,0.00
2023-04-02T04:09:32.839Z,0.00
2023-04-02T04:10:32.856Z,0.00
2023-04-02T04:11:32.817Z,0.00
2023-04-02T04:12:32.840Z,0.00
2023-04-02T04:13:32.816Z,0.00
2023-04-02T04:14:32.819Z,0.00
2023-04-02T04:15:32.908Z,0.00
2023-04-02T04:16:32.818Z,0.00
2023-04-02T04:17:32.757Z,0.00
2023-04-02T04:18:32.860Z,0.00
2023-04-02T04:19:32.720Z,0.00
2023-04-02T04:20:32.701Z,0.00
2023-04-02T04:21:32.694Z,0.00
2023-04-02T04:22:32.742Z,0.00
2023-04-02T04:23:32.653Z,1.00
2023-04-02T04:24:32.690Z,1.00
2023-04-02T04:25:32.633Z,1.00
2023-04-02T04:26:32.658Z,0.00
2023-04-02T04:27:32.588Z,0.00
2023-04-02T04:28:32.641Z,2.00
2023-04-02T04:29:32.582Z,2.00
2023-04-02T04:30:32.607Z,0.00
2023-04-02T04:31:32.579Z,0.00
2023-04-02T04:32:32.627Z,0.00
2023-04-02T04:33:32.532Z,2.00
2023-04-02T04:34:32.550Z,1.00
2023-04-02T04:35:32.546Z,1.00
2023-04-02T04:36:32.568Z,2.00
2023-04-02T04:37:32.453Z,9.00
2023-04-02T04:38:32.464Z,9.00
2023-04-02T04:39:32.458Z,5.00
2023-04-02T04:40:32.481Z,8.00
2023-04-02T04:41:32.399Z,10.00
2023-04-02T04:42:32.458Z,6.00
2023-04-02T04:43:32.404Z,6.00
2023-04-02T04:44:32.389Z,13.00
2023-04-02T04:45:32.606Z,24.00
2023-04-02T04:46:32.432Z,12.00
2023-04-02T04:47:32.349Z,27.00
2023-04-02T04:49:32.329Z,36.00
2023-04-02T04:50:32.314Z,45.00
2023-04-02T04:51:32.291Z,48.00
2023-04-02T04:52:32.307Z,48.00
2023-04-02T04:53:32.283Z,59.00
2023-04-02T04:54:32.328Z,66.00
2023-04-02T04:55:32.232Z,62.00
2023-04-02T04:56:32.271Z,82.00
2023-04-02T04:57:32.204Z,93.00
2023-04-02T04:58:32.231Z,98.00
2023-04-02T04:59:32.226Z,114.00
2023-04-02T05:00:32.206Z,114.00
2023-04-02T05:01:32.180Z,137.00
2023-04-02T05:02:32.247Z,144.00
2023-04-02T05:03:32.127Z,156.00
2023-04-02T05:04:32.219Z,160.00
2023-04-02T05:05:32.142Z,174.00
2023-04-02T05:06:32.212Z,186.00
2023-04-02T05:07:32.099Z,197.00
2023-04-02T05:08:32.069Z,220.00
2023-04-02T05:09:32.065Z,225.00
2023-04-02T05:10:32.097Z,246.00
2023-04-02T05:11:32.007Z,254.00
2023-04-02T05:12:32.136Z,275.00
2023-04-02T05:13:32.002Z,288.00
2023-04-02T05:14:32.018Z,312.00
2023-04-02T05:15:32.012Z,314.00
2023-04-02T05:16:32.113Z,340.00
2023-04-02T05:17:31.963Z,339.00
2023-04-02T05:18:32.059Z,359.00
2023-04-02T05:19:31.922Z,386.00
2023-04-02T05:20:31.918Z,405.00
2023-04-02T05:21:31.898Z,415.00
2023-04-02T05:22:31.912Z,424.00
2023-04-02T05:23:31.853Z,441.00
2023-04-02T05:24:32.012Z,441.00
2023-04-02T05:25:31.822Z,443.00
2023-04-02T05:26:31.845Z,459.00
2023-04-02T05:27:31.839Z,488.00
2023-04-02T05:28:31.837Z,494.00
2023-04-02T05:29:31.771Z,513.00
2023-04-02T05:30:31.831Z,527.00
2023-04-02T05:31:31.802Z,538.00
2023-04-02T05:32:31.805Z,556.00
2023-04-02T05:33:31.740Z,622.00
2023-04-02T05:34:31.756Z,669.00
2023-04-02T05:35:31.716Z,705.00
2023-04-02T05:36:31.804Z,727.00
2023-04-02T05:37:31.662Z,746.00
2023-04-02T05:38:31.677Z,784.00
2023-04-02T05:39:31.662Z,823.00
2023-04-02T05:40:31.656Z,828.00
2023-04-02T05:41:31.661Z,814.00
2023-04-02T05:42:31.700Z,826.00
2023-04-02T05:43:31.588Z,831.00
2023-04-02T05:44:31.619Z,874.00
2023-04-02T05:45:31.592Z,909.00
2023-04-02T05:46:31.619Z,951.00
2023-04-02T05:47:31.619Z,983.00
2023-04-02T05:48:31.686Z,1006.00
2023-04-02T05:49:31.521Z,1032.00
2023-04-02T05:50:31.536Z,1044.00
2023-04-02T05:51:31.524Z,1096.00
2023-04-02T05:52:31.502Z,1129.00
2023-04-02T05:53:31.489Z,1143.00
2023-04-02T05:54:31.523Z,1160.00
2023-04-02T05:55:31.429Z,1226.00
2023-04-02T05:56:31.473Z,1209.00
2023-04-02T05:57:42.110Z,1222.00
2023-04-02T05:58:36.213Z,1298.00
2023-04-02T05:59:31.405Z,1330.00
2023-04-02T06:00:31.460Z,1339.00
2023-04-02T06:01:31.396Z,1361.00
2023-04-02T06:02:31.557Z,1348.00
2023-04-02T06:03:31.374Z,1371.00
2023-04-02T06:04:31.387Z,1416.00
2023-04-02T06:05:31.294Z,1455.00
2023-04-02T06:06:31.421Z,1467.00
2023-04-02T06:07:31.289Z,1511.00
2023-04-02T06:08:31.313Z,1627.00
2023-04-02T06:09:31.267Z,1663.00
2023-04-02T06:10:31.284Z,1695.00
2023-04-02T06:11:31.225Z,1705.00
2023-04-02T06:12:31.285Z,1739.00
2023-04-02T06:13:31.215Z,1780.00
2023-04-02T06:14:31.212Z,1777.00
2023-04-02T06:15:31.190Z,1765.00
2023-04-02T06:16:31.227Z,1750.00
2023-04-02T06:17:31.160Z,1746.00
2023-04-02T06:18:31.214Z,1738.00
2023-04-02T06:19:31.134Z,1753.00
2023-04-02T06:20:31.119Z,1777.00
2023-04-02T06:21:31.126Z,1852.00
2023-04-02T06:22:31.130Z,1901.00
2023-04-02T06:23:31.272Z,1997.00
2023-04-02T06:24:31.110Z,1973.00
2023-04-02T06:25:31.031Z,2007.00
2023-04-02T06:26:31.042Z,2049.00
2023-04-02T06:27:31.015Z,2064.00
2023-04-02T06:28:31.029Z,2152.00
2023-04-02T06:29:31.010Z,2227.00
2023-04-02T06:30:31.057Z,2261.00
2023-04-02T06:31:30.969Z,2237.00
2023-04-02T06:32:30.974Z,2284.00
2023-04-02T06:33:30.945Z,2329.00
2023-04-02T06:34:30.983Z,2352.00
2023-04-02T06:35:30.903Z,2459.00
2023-04-02T06:36:31.056Z,2352.00
2023-04-02T06:37:30.869Z,2254.00
2023-04-02T06:38:30.913Z,2310.00
2023-04-02T06:39:30.877Z,2438.00
2023-04-02T06:40:30.855Z,2529.00
2023-04-02T06:41:30.838Z,2561.00
2023-04-02T06:42:30.893Z,2676.00
2023-04-02T06:43:30.800Z,2809.00
2023-04-02T06:44:30.834Z,2869.00
2023-04-02T06:45:30.784Z,2938.00
2023-04-02T06:46:30.898Z,3024.00
2023-04-02T06:47:30.779Z,3037.00
2023-04-02T06:48:30.817Z,3090.00
2023-04-02T06:49:30.705Z,3090.00
2023-04-02T06:50:30.724Z,3087.00
2023-04-02T06:51:30.702Z,3066.00
2023-04-02T06:52:30.706Z,3044.00
2023-04-02T06:53:30.716Z,3087.00
2023-04-02T06:54:30.806Z,3066.00
2023-04-02T06:55:30.665Z,3063.00
2023-04-02T06:56:30.705Z,3126.00
2023-04-02T06:57:30.684Z,3162.00
2023-04-02T06:58:30.607Z,3196.00
2023-04-02T06:59:30.630Z,3263.00
2023-04-02T07:00:30.620Z,3335.00
2023-04-02T07:01:30.647Z,3360.00
2023-04-02T07:02:30.604Z,3466.00
2023-04-02T07:03:30.524Z,3476.00
2023-04-02T07:04:30.519Z,3461.00
2023-04-02T07:05:30.583Z,3428.00
2023-04-02T07:06:30.622Z,3383.00
2023-04-02T07:07:30.498Z,3402.00
2023-04-02T07:08:30.481Z,3435.00
2023-04-02T07:09:30.464Z,3382.00
2023-04-02T07:10:30.447Z,3412.00
2023-04-02T07:11:30.456Z,3442.00
2023-04-02T07:12:30.440Z,3460.00
2023-04-02T07:13:30.435Z,3362.00
2023-04-02T07:14:30.390Z,3423.00
2023-04-02T07:15:30.381Z,3537.00
2023-04-02T07:16:30.417Z,3592.00
2023-04-02T07:17:30.404Z,3684.00
2023-04-02T07:18:30.350Z,3801.00
2023-04-02T07:19:30.350Z,3916.00
2023-04-02T07:20:30.349Z,4050.00
2023-04-02T07:21:30.301Z,4331.00
2023-04-02T07:22:30.268Z,4541.00
2023-04-02T07:23:30.289Z,4654.00
2023-04-02T07:24:30.344Z,4893.00
2023-04-02T07:25:30.283Z,4903.00
2023-04-02T07:26:30.229Z,4964.00
2023-04-02T07:27:30.215Z,5004.00
2023-04-02T07:28:30.231Z,5115.00
2023-04-02T07:29:30.197Z,5113.00
2023-04-02T07:30:30.188Z,5330.00
2023-04-02T07:31:30.219Z,5376.00
2023-04-02T07:32:30.142Z,5312.00
2023-04-02T07:33:30.193Z,5320.00
2023-04-02T07:34:30.122Z,5372.00
2023-04-02T07:35:30.118Z,5441.00
2023-04-02T07:36:30.106Z,5542.00
2023-04-02T07:37:30.150Z,5508.00
2023-04-02T07:38:30.071Z,5425.00
2023-04-02T07:39:30.058Z,5454.00
2023-04-02T07:40:30.045Z,5502.00
2023-04-02T07:41:31.031Z,5491.00
2023-04-02T07:42:30.107Z,5692.00
2023-04-02T07:43:30.068Z,5933.00
2023-04-02T07:44:29.969Z,5986.00
2023-04-02T07:45:30.009Z,5910.00
2023-04-02T07:46:30.013Z,5814.00
2023-04-02T07:47:29.982Z,5695.00
2023-04-02T07:48:30.008Z,5674.00
2023-04-02T07:49:29.965Z,5940.00
2023-04-02T07:50:29.882Z,6001.00
2023-04-02T07:51:29.926Z,6218.00
2023-04-02T07:52:29.888Z,6186.00
2023-04-02T07:53:30.146Z,6235.00
2023-04-02T07:54:29.858Z,6311.00
2023-04-02T07:55:29.867Z,6531.00
2023-04-02T07:56:29.805Z,6568.00
2023-04-02T07:57:29.939Z,6734.00
2023-04-02T07:58:29.849Z,6470.00
2023-04-02T07:59:29.814Z,6588.00
2023-04-02T08:00:29.820Z,6540.00
2023-04-02T08:01:29.777Z,6588.00
2023-04-02T08:02:29.765Z,6881.00
2023-04-02T08:03:29.864Z,6972.00
2023-04-02T08:04:29.706Z,7026.00
2023-04-02T08:05:29.756Z,6773.00
2023-04-02T08:06:29.823Z,6852.00
2023-04-02T08:07:29.696Z,7047.00
2023-04-02T08:08:29.674Z,7140.00
2023-04-02T08:09:29.660Z,7402.00
2023-04-02T08:10:29.657Z,7535.00
2023-04-02T08:11:31.670Z,7443.00
2023-04-02T08:12:29.626Z,7509.00
2023-04-02T08:13:29.696Z,7526.00
2023-04-02T08:14:29.622Z,7608.00
2023-04-02T08:15:29.587Z,7653.00
2023-04-02T08:16:29.582Z,7851.00
2023-04-02T08:17:29.637Z,7894.00
2023-04-02T08:18:29.563Z,7787.00
2023-04-02T08:19:29.562Z,7623.00
2023-04-02T08:20:29.518Z,7732.00
2023-04-02T08:21:29.527Z,7705.00
2023-04-02T08:22:29.491Z,7773.00
2023-04-02T08:23:29.488Z,7891.00
2023-04-02T08:24:29.474Z,7977.00
2023-04-02T08:25:29.479Z,7950.00
2023-04-02T08:26:29.454Z,7995.00
2023-04-02T08:27:29.422Z,7839.00
2023-04-02T08:28:29.422Z,7612.00
2023-04-02T08:29:29.420Z,7677.00
2023-04-02T08:30:29.424Z,7854.00
2023-04-02T08:31:29.440Z,7932.00
2023-04-02T08:32:29.409Z,8188.00
2023-04-02T08:33:29.376Z,8242.00
2023-04-02T08:34:29.335Z,7975.00
2023-04-02T08:35:29.348Z,7874.00
2023-04-02T08:36:29.391Z,7618.00
2023-04-02T08:37:29.295Z,7525.00
2023-04-02T08:38:29.253Z,7534.00
2023-04-02T08:39:29.319Z,7462.00
2023-04-02T08:40:29.255Z,7516.00
2023-04-02T08:41:29.238Z,7481.00
2023-04-02T08:42:29.237Z,7536.00
2023-04-02T08:43:29.248Z,7723.00
2023-04-02T08:44:29.187Z,8095.00
2023-04-02T08:45:29.237Z,8231.00
2023-04-02T08:46:29.222Z,8624.00
2023-04-02T08:47:29.210Z,8666.00
2023-04-02T08:48:29.178Z,9125.00
2023-04-02T08:49:29.155Z,9151.00
2023-04-02T08:50:29.094Z,8910.00
2023-04-02T08:51:29.125Z,8535.00
2023-04-02T08:52:29.073Z,8607.00
2023-04-02T08:53:29.146Z,8286.00
2023-04-02T08:54:29.133Z,8088.00
2023-04-02T08:55:29.082Z,8420.00
2023-04-02T08:56:29.076Z,8269.00
2023-04-02T08:57:29.191Z,8218.00
2023-04-02T08:58:29.106Z,8083.00
2023-04-02T08:59:29.086Z,8230.00
2023-04-02T09:00:29.130Z,8553.00
2023-04-02T09:01:28.993Z,8731.00
2023-04-02T09:02:28.989Z,8913.00
2023-04-02T09:03:28.966Z,9381.00
2023-04-02T09:04:28.925Z,9080.00
2023-04-02T09:05:28.968Z,9118.00
2023-04-02T09:06:28.933Z,9317.00
2023-04-02T09:07:29.850Z,9523.00
2023-04-02T09:08:28.889Z,9285.00
2023-04-02T09:09:28.881Z,9400.00
2023-04-02T09:10:28.842Z,9915.00
2023-04-02T09:11:28.846Z,10163.00
2023-04-02T09:12:28.907Z,10390.00
2023-04-02T09:13:28.847Z,10502.00
2023-04-02T09:14:29.758Z,10174.00
2023-04-02T09:15:28.777Z,12553.00
2023-04-02T09:16:28.854Z,12495.00
2023-04-02T09:17:31.188Z,12687.00
2023-04-02T09:18:29.815Z,12160.00
2023-04-02T09:19:28.748Z,11580.00
2023-04-02T09:20:28.681Z,11682.00
2023-04-02T09:21:28.720Z,12094.00
2023-04-02T09:22:28.712Z,12810.00
2023-04-02T09:23:28.666Z,12217.00
2023-04-02T09:24:28.773Z,11978.00
2023-04-02T09:25:28.648Z,12694.00
2023-04-02T09:26:28.609Z,11997.00
2023-04-02T09:27:28.642Z,12068.00
2023-04-02T09:28:28.604Z,11751.00
2023-04-02T09:29:28.593Z,11167.00
2023-04-02T09:30:28.665Z,11283.00
2023-04-02T09:31:28.651Z,11674.00
2023-04-02T09:32:28.590Z,11499.00
2023-04-02T09:33:28.566Z,11230.00
2023-04-02T09:34:28.527Z,11037.00
2023-04-02T09:35:28.510Z,10548.00
2023-04-02T09:36:28.695Z,10128.00
2023-04-02T09:37:28.492Z,9916.00
2023-04-02T09:38:28.479Z,9993.00
2023-04-02T09:39:28.501Z,10205.00
2023-04-02T09:40:28.422Z,10366.00
2023-04-02T09:41:28.454Z,10240.00
2023-04-02T09:42:28.442Z,10323.00
2023-04-02T09:43:28.427Z,10360.00
2023-04-02T09:44:28.378Z,10269.00
2023-04-02T09:45:28.428Z,10279.00
2023-04-02T09:46:28.385Z,10756.00
2023-04-02T09:47:28.406Z,11069.00
2023-04-02T09:48:28.459Z,11633.00
2023-04-02T09:49:28.328Z,11715.00
2023-04-02T09:50:28.291Z,11868.00
2023-04-02T09:51:28.352Z,11709.00
2023-04-02T09:52:28.308Z,12093.00
2023-04-02T09:53:28.299Z,12508.00
2023-04-02T09:54:28.391Z,12888.00
2023-04-02T09:55:28.252Z,12563.00
2023-04-02T09:56:28.251Z,12599.00
2023-04-02T09:57:28.266Z,11871.00
2023-04-02T09:58:28.177Z,11853.00
2023-04-02T09:59:28.251Z,12086.00
2023-04-02T10:00:32.122Z,12223.00
2023-04-02T10:01:28.217Z,12474.00
2023-04-02T10:02:28.171Z,11207.00
2023-04-02T10:03:28.136Z,11449.00
2023-04-02T10:04:28.117Z,11520.00
2023-04-02T10:05:40.013Z,11405.00
2023-04-02T10:06:29.213Z,11073.00
2023-04-02T10:07:28.083Z,10932.00
2023-04-02T10:08:28.115Z,11173.00
2023-04-02T10:09:28.071Z,10993.00
2023-04-02T10:10:28.012Z,10772.00
2023-04-02T10:11:36.524Z,11126.00
2023-04-02T10:12:29.027Z,11584.00
2023-04-02T10:13:28.070Z,11634.00
2023-04-02T10:14:27.992Z,11844.00
2023-04-02T10:15:27.975Z,11840.00
2023-04-02T10:16:28.060Z,11494.00
2023-04-02T10:17:27.981Z,10923.00
2023-04-02T10:18:27.950Z,10807.00
2023-04-02T10:19:27.947Z,11099.00
2023-04-02T10:20:28.544Z,11717.00
2023-04-02T10:21:27.924Z,11788.00
2023-04-02T10:22:27.878Z,11708.00
2023-04-02T10:23:27.867Z,12187.00
2023-04-02T10:24:27.885Z,12315.00
2023-04-02T10:25:27.844Z,11808.00
2023-04-02T10:26:27.804Z,11163.00
2023-04-02T10:27:27.839Z,11512.00
2023-04-02T10:28:27.783Z,11716.00
2023-04-02T10:29:27.839Z,11964.00
2023-04-02T10:30:27.815Z,11362.00
2023-04-02T10:31:27.839Z,10228.00
2023-04-02T10:32:27.752Z,9694.00
2023-04-02T10:33:27.761Z,9707.00
2023-04-02T10:34:27.722Z,9813.00
2023-04-02T10:35:27.738Z,10452.00
2023-04-02T10:36:27.716Z,10085.00
2023-04-02T10:37:27.678Z,9360.00
2023-04-02T10:38:27.656Z,9445.00
2023-04-02T10:39:27.676Z,10620.00
2023-04-02T10:40:27.630Z,8872.00
2023-04-02T10:41:27.677Z,9871.00
2023-04-02T10:42:27.730Z,9242.00
2023-04-02T10:43:27.612Z,9275.00
2023-04-02T10:44:27.616Z,9030.00
2023-04-02T10:45:27.575Z,8812.00
2023-04-02T10:46:27.562Z,8693.00
2023-04-02T10:47:27.642Z,8704.00
2023-04-02T10:48:27.565Z,8777.00
2023-04-02T10:49:27.594Z,8987.00
2023-04-02T10:50:27.502Z,9019.00
2023-04-02T10:51:27.527Z,9046.00
2023-04-02T10:52:27.456Z,9124.00
2023-04-02T10:53:27.513Z,9464.00
2023-04-02T10:54:27.500Z,9994.00
2023-04-02T10:55:27.441Z,9893.00
2023-04-02T10:56:28.523Z,9786.00
2023-04-02T10:57:27.482Z,9656.00
2023-04-02T10:58:27.375Z,10482.00
2023-04-02T10:59:27.413Z,10361.00
2023-04-02T11:00:27.363Z,9499.00
2023-04-02T11:01:27.404Z,9164.00
2023-04-02T11:02:27.404Z,9008.00
2023-04-02T11:03:27.466Z,9216.00
2023-04-02T11:04:27.288Z,9214.00
2023-04-02T11:05:27.325Z,9005.00
2023-04-02T11:06:28.457Z,8981.00
2023-04-02T11:07:27.286Z,8784.00
2023-04-02T11:08:27.266Z,8710.00
2023-04-02T11:09:27.255Z,9548.00
2023-04-02T11:10:27.215Z,9848.00
2023-04-02T11:11:27.258Z,10053.00
2023-04-02T11:12:27.308Z,9994.00
2023-04-02T11:13:27.236Z,10628.00
2023-04-02T11:14:27.172Z,11987.00
2023-04-02T11:15:27.174Z,11773.00
2023-04-02T11:16:27.256Z,12312.00
2023-04-02T11:17:27.148Z,10138.00
2023-04-02T11:18:27.218Z,11064.00
2023-04-02T11:19:27.160Z,11032.00
2023-04-02T11:20:27.125Z,11105.00
2023-04-02T11:21:27.067Z,11463.00
2023-04-02T11:22:27.076Z,11803.00
2023-04-02T11:23:27.067Z,12521.00
2023-04-02T11:24:27.095Z,14493.00
2023-04-02T11:25:27.035Z,16796.00
2023-04-02T11:26:27.039Z,17078.00
2023-04-02T11:27:27.006Z,16811.00
2023-04-02T11:28:27.016Z,16725.00
2023-04-02T11:29:26.950Z,16401.00
2023-04-02T11:30:27.080Z,15238.00
2023-04-02T11:31:27.007Z,14749.00
2023-04-02T11:32:26.970Z,14170.00
2023-04-02T11:33:36.552Z,13527.00
2023-04-02T11:34:27.948Z,13290.00
2023-04-02T11:35:26.873Z,13402.00
2023-04-02T11:36:27.010Z,14024.00
2023-04-02T11:37:26.880Z,15356.00
2023-04-02T11:38:26.882Z,15621.00
2023-04-02T11:39:26.821Z,15251.00
2023-04-02T11:40:26.873Z,15238.00
2023-04-02T11:41:26.792Z,16017.00
2023-04-02T11:42:26.836Z,16194.00
2023-04-02T11:43:26.807Z,16801.00
2023-04-02T11:44:26.782Z,16113.00
2023-04-02T11:45:26.766Z,16966.00
2023-04-02T11:46:26.860Z,17562.00
2023-04-02T11:47:26.759Z,16850.00
2023-04-02T11:48:26.859Z,16816.00
2023-04-02T11:49:26.683Z,19048.00
2023-04-02T11:50:26.704Z,21014.00
2023-04-02T11:51:26.685Z,19821.00
2023-04-02T11:52:26.706Z,22374.00
2023-04-02T11:53:26.643Z,21970.00
2023-04-02T11:54:26.676Z,21946.00
2023-04-02T11:55:26.629Z,22090.00
2023-04-02T11:56:26.611Z,23137.00
2023-04-02T11:57:26.645Z,21529.00
2023-04-02T11:58:26.609Z,23023.00
2023-04-02T11:59:26.549Z,24149.00
2023-04-02T12:00:26.718Z,16037.00
2023-04-02T12:01:26.519Z,17965.00
2023-04-02T12:02:26.605Z,14714.00
2023-04-02T12:03:26.507Z,18236.00
2023-04-02T12:04:26.508Z,21806.00
2023-04-02T12:05:26.611Z,14404.00
2023-04-02T12:06:26.606Z,14783.00
2023-04-02T12:07:26.454Z,15258.00
2023-04-02T12:08:26.444Z,15991.00
2023-04-02T12:09:26.437Z,15060.00
2023-04-02T12:10:26.463Z,14120.00
2023-04-02T12:11:26.373Z,13691.00
2023-04-02T12:12:26.443Z,14468.00
2023-04-02T12:13:26.383Z,13272.00
2023-04-02T12:14:26.372Z,12559.00
2023-04-02T12:15:26.361Z,13825.00
2023-04-02T12:16:26.353Z,12309.00
2023-04-02T12:17:26.411Z,14325.00
2023-04-02T12:18:26.441Z,14723.00
2023-04-02T12:19:26.265Z,15149.00
2023-04-02T12:20:26.309Z,15297.00
2023-04-02T12:21:26.246Z,14567.00
2023-04-02T12:22:26.255Z,14350.00
2023-04-02T12:23:26.243Z,14187.00
2023-04-02T12:24:26.358Z,14336.00
2023-04-02T12:25:26.214Z,16052.00
2023-04-02T12:26:26.222Z,14347.00
2023-04-02T12:27:26.174Z,14750.00
2023-04-02T12:28:26.192Z,13920.00
2023-04-02T12:29:26.163Z,13630.00